La rose des vents
Donnes mto: Semaine 07/02/22 - 13/02/22 (S 6)
Date Horaire Temp. E. Hum. E. P.atmo. Pluie Vent 1mn Direction Ensoleilleme Ev.Tr. Solaire P. de rose Temp au vent Rafales
07/02/2022 00:00 7,0 C 84 % 1013,2 hPa 0,0 l/m 0,0 km/h (0 Bft) N 0,00 h 0,025 mm 0 W/m 4,5 C 7,0 C 0,0 km/h (0 Bft)
07/02/2022 01:00 6,6 C 86 % 1012,1 hPa 0,0 l/m 0,0 km/h (0 Bft) N 0,00 h 0,000 mm 0 W/m 4,5 C 6,6 C 0,2 km/h (0 Bft)
07/02/2022 02:00 6,8 C 86 % 1011,3 hPa 0,0 l/m 0,0 km/h (0 Bft) N 0,00 h 0,000 mm 0 W/m 4,6 C 6,8 C 0,1 km/h (0 Bft)
07/02/2022 03:00 6,9 C 85 % 1010,2 hPa 0,0 l/m 0,0 km/h (0 Bft) SE 0,00 h 0,000 mm 0 W/m 4,6 C 6,9 C 0,8 km/h (0 Bft)
07/02/2022 04:00 6,9 C 86 % 1009,2 hPa 0,0 l/m 0,1 km/h (0 Bft) SE 0,00 h 0,000 mm 0 W/m 4,7 C 6,9 C 0,5 km/h (0 Bft)
07/02/2022 05:00 6,5 C 87 % 1008,8 hPa 0,0 l/m 0,0 km/h (0 Bft) N 0,00 h 0,000 mm 0 W/m 4,5 C 6,5 C 0,3 km/h (0 Bft)
07/02/2022 06:00 6,3 C 89 % 1008,5 hPa 0,0 l/m 0,0 km/h (0 Bft) SE 0,00 h 0,000 mm 0 W/m 4,6 C 6,3 C 0,3 km/h (0 Bft)
07/02/2022 07:00 6,5 C 90 % 1008,7 hPa 0,0 l/m 0,1 km/h (0 Bft) SE 0,13 h 0,000 mm 12 W/m 4,9 C 6,5 C 0,4 km/h (0 Bft)
07/02/2022 08:00 7,2 C 91 % 1009,4 hPa 0,0 l/m 0,0 km/h (0 Bft) N 1,00 h 0,000 mm 88 W/m 5,7 C 7,2 C 0,0 km/h (0 Bft)
07/02/2022 09:00 10,3 C 80 % 1009,8 hPa 0,0 l/m 0,0 km/h (0 Bft) N 1,00 h 0,051 mm 230 W/m 7,1 C 10,3 C 0,0 km/h (0 Bft)
07/02/2022 10:00 13,6 C 73 % 1010,1 hPa 0,0 l/m 0,1 km/h (0 Bft) SE 1,00 h 0,102 mm 357 W/m 8,8 C 13,6 C 0,7 km/h (0 Bft)
07/02/2022 11:00 15,7 C 66 % 1011,1 hPa 0,0 l/m 1,4 km/h (1 Bft) E-SE 1,00 h 0,178 mm 441 W/m 9,5 C 15,7 C 4,3 km/h (1 Bft)
07/02/2022 12:00 16,3 C 64 % 1012,2 hPa 0,0 l/m 1,3 km/h (1 Bft) E 1,00 h 0,254 mm 478 W/m 9,5 C 16,3 C 5,3 km/h (1 Bft)
07/02/2022 13:00 16,6 C 63 % 1013,9 hPa 0,0 l/m 0,9 km/h (0 Bft) E 1,00 h 0,254 mm 462 W/m 9,5 C 16,6 C 3,5 km/h (1 Bft)
07/02/2022 14:00 16,7 C 60 % 1015,1 hPa 0,0 l/m 0,2 km/h (0 Bft) S 1,00 h 0,254 mm 394 W/m 9,0 C 16,7 C 0,9 km/h (0 Bft)
07/02/2022 15:00 16,8 C 57 % 1016,3 hPa 0,0 l/m 0,7 km/h (0 Bft) S-SE 1,00 h 0,229 mm 281 W/m 8,1 C 16,8 C 2,2 km/h (1 Bft)
07/02/2022 16:00 15,4 C 57 % 1018,1 hPa 0,0 l/m 0,7 km/h (0 Bft) S-SE 1,00 h 0,152 mm 153 W/m 7,0 C 15,4 C 2,2 km/h (1 Bft)
07/02/2022 17:00 13,3 C 56 % 1019,5 hPa 0,0 l/m 2,5 km/h (1 Bft) S-SE 0,15 h 0,102 mm 28 W/m 4,7 C 13,3 C 5,2 km/h (1 Bft)
07/02/2022 18:00 11,3 C 53 % 1020,7 hPa 0,0 l/m 2,1 km/h (1 Bft) O-SO 0,00 h 0,025 mm 0 W/m 2,0 C 11,3 C 5,3 km/h (1 Bft)
07/02/2022 19:00 11,0 C 55 % 1021,7 hPa 0,0 l/m 4,8 km/h (1 Bft) O-NO 0,00 h 0,025 mm 0 W/m 2,3 C 11,0 C 10,5 km/h (2 Bft)
07/02/2022 20:00 11,0 C 51 % 1022,9 hPa 0,0 l/m 3,2 km/h (1 Bft) O-NO 0,00 h 0,051 mm 0 W/m 1,2 C 11,0 C 7,8 km/h (2 Bft)
07/02/2022 21:00 10,6 C 50 % 1023,8 hPa 0,0 l/m 0,7 km/h (0 Bft) O-NO 0,00 h 0,051 mm 0 W/m 0,6 C 10,6 C 2,4 km/h (1 Bft)
07/02/2022 22:00 9,5 C 55 % 1025,2 hPa 0,0 l/m 0,0 km/h (0 Bft) N 0,00 h 0,025 mm 0 W/m 0,8 C 9,5 C 0,0 km/h (0 Bft)
07/02/2022 23:00 9,0 C 54 % 1025,8 hPa 0,0 l/m 0,1 km/h (0 Bft) O-NO 0,00 h 0,025 mm 0 W/m 0,1 C 9,0 C 0,9 km/h (0 Bft)
08/02/2022 00:00 8,5 C 55 % 1026,6 hPa 0,0 l/m 0,4 km/h (0 Bft) O-NO 0,00 h 0,025 mm 0 W/m 0,0 C 8,4 C 0,8 km/h (0 Bft)
08/02/2022 01:00 8,0 C 56 % 1026,9 hPa 0,0 l/m 0,0 km/h (0 Bft) N 0,00 h 0,025 mm 0 W/m -0,2 C 8,0 C 0,4 km/h (0 Bft)
08/02/2022 02:00 7,7 C 55 % 1027,0 hPa 0,0 l/m 0,1 km/h (0 Bft) O-NO 0,00 h 0,025 mm 0 W/m -0,8 C 7,7 C 0,7 km/h (0 Bft)
08/02/2022 03:00 7,9 C 51 % 1027,1 hPa 0,0 l/m 0,2 km/h (0 Bft) O-NO 0,00 h 0,025 mm 0 W/m -1,6 C 7,9 C 1,3 km/h (1 Bft)
08/02/2022 04:00 7,7 C 51 % 1027,2 hPa 0,0 l/m 0,4 km/h (0 Bft) O-NO 0,00 h 0,025 mm 0 W/m -1,7 C 7,7 C 1,3 km/h (1 Bft)
08/02/2022 05:00 7,5 C 52 % 1027,8 hPa 0,0 l/m 0,1 km/h (0 Bft) O-NO 0,00 h 0,025 mm 0 W/m -1,7 C 7,5 C 0,9 km/h (0 Bft)
08/02/2022 06:00 7,2 C 52 % 1028,0 hPa 0,0 l/m 0,3 km/h (0 Bft) O-NO 0,00 h 0,025 mm 0 W/m -1,9 C 7,2 C 1,6 km/h (1 Bft)
08/02/2022 07:00 7,0 C 54 % 1028,6 hPa 0,0 l/m 0,6 km/h (0 Bft) O-NO 0,17 h 0,025 mm 14 W/m -1,7 C 7,0 C 1,6 km/h (1 Bft)
08/02/2022 08:00 7,5 C 55 % 1029,4 hPa 0,0 l/m 0,0 km/h (0 Bft) N 1,00 h 0,000 mm 97 W/m -0,9 C 7,5 C 0,2 km/h (0 Bft)
08/02/2022 09:00 11,3 C 48 % 1030,1 hPa 0,0 l/m 0,0 km/h (0 Bft) N 1,00 h 0,051 mm 241 W/m 0,6 C 11,3 C 0,0 km/h (0 Bft)
08/02/2022 10:00 14,2 C 44 % 1030,5 hPa 0,0 l/m 0,0 km/h (0 Bft) N 1,00 h 0,127 mm 368 W/m 2,1 C 14,2 C 0,0 km/h (0 Bft)
08/02/2022 11:00 15,7 C 41 % 1030,9 hPa 0,0 l/m 0,5 km/h (0 Bft) S 1,00 h 0,203 mm 457 W/m 2,5 C 15,7 C 1,3 km/h (1 Bft)
08/02/2022 12:00 16,6 C 35 % 1030,7 hPa 0,0 l/m 2,1 km/h (1 Bft) S 1,00 h 0,254 mm 492 W/m 1,0 C 16,6 C 5,5 km/h (1 Bft)
08/02/2022 13:00 17,3 C 34 % 1030,2 hPa 0,0 l/m 3,0 km/h (1 Bft) S-SO 1,00 h 0,279 mm 477 W/m 1,3 C 17,3 C 7,0 km/h (2 Bft)
08/02/2022 14:00 16,7 C 38 % 1029,9 hPa 0,0 l/m 3,5 km/h (1 Bft) S 1,00 h 0,305 mm 409 W/m 2,2 C 16,7 C 7,7 km/h (2 Bft)
08/02/2022 15:00 16,6 C 44 % 1029,5 hPa 0,0 l/m 3,5 km/h (1 Bft) S-SO 1,00 h 0,254 mm 299 W/m 4,1 C 16,6 C 7,3 km/h (2 Bft)
08/02/2022 16:00 16,1 C 52 % 1029,5 hPa 0,0 l/m 1,6 km/h (1 Bft) S 1,00 h 0,203 mm 162 W/m 6,2 C 16,1 C 3,7 km/h (1 Bft)
08/02/2022 17:00 14,8 C 54 % 1029,5 hPa 0,0 l/m 0,5 km/h (0 Bft) SO 0,12 h 0,102 mm 22 W/m 5,5 C 14,8 C 1,6 km/h (1 Bft)
08/02/2022 18:00 12,6 C 62 % 1030,0 hPa 0,0 l/m 0,0 km/h (0 Bft) SO 0,00 h 0,025 mm 0 W/m 5,5 C 12,6 C 0,3 km/h (0 Bft)
08/02/2022 19:00 11,0 C 71 % 1030,5 hPa 0,0 l/m 0,1 km/h (0 Bft) SO 0,00 h 0,000 mm 0 W/m 6,0 C 11,0 C 0,2 km/h (0 Bft)
08/02/2022 20:00 9,8 C 72 % 1030,9 hPa 0,0 l/m 0,0 km/h (0 Bft) SO 0,00 h 0,025 mm 0 W/m 4,9 C 9,8 C 0,1 km/h (0 Bft)
08/02/2022 21:00 9,0 C 73 % 1031,2 hPa 0,0 l/m 0,1 km/h (0 Bft) SO 0,00 h 0,025 mm 0 W/m 4,3 C 9,0 C 0,5 km/h (0 Bft)
08/02/2022 22:00 8,1 C 69 % 1031,5 hPa 0,0 l/m 0,5 km/h (0 Bft) SO 0,00 h 0,025 mm 0 W/m 2,8 C 8,1 C 1,5 km/h (1 Bft)
08/02/2022 23:00 8,0 C 65 % 1031,4 hPa 0,0 l/m 0,1 km/h (0 Bft) SO 0,00 h 0,025 mm 0 W/m 1,8 C 8,0 C 0,3 km/h (0 Bft)
09/02/2022 00:00 7,5 C 60 % 1031,4 hPa 0,0 l/m 0,1 km/h (0 Bft) SO 0,00 h 0,025 mm 0 W/m 0,2 C 7,5 C 0,7 km/h (0 Bft)
09/02/2022 01:00 7,5 C 65 % 1031,3 hPa 0,0 l/m 0,0 km/h (0 Bft) SO 0,00 h 0,025 mm 0 W/m 1,4 C 7,5 C 0,2 km/h (0 Bft)
09/02/2022 02:00 7,3 C 68 % 1031,6 hPa 0,0 l/m 0,5 km/h (0 Bft) SO 0,00 h 0,025 mm 0 W/m 1,9 C 7,3 C 1,0 km/h (0 Bft)
09/02/2022 03:00 6,9 C 68 % 1031,3 hPa 0,0 l/m 0,5 km/h (0 Bft) SO 0,00 h 0,025 mm 0 W/m 1,5 C 6,9 C 1,7 km/h (1 Bft)
09/02/2022 04:00 6,9 C 66 % 1031,0 hPa 0,0 l/m 0,2 km/h (0 Bft) SO 0,00 h 0,025 mm 0 W/m 1,0 C 6,9 C 0,5 km/h (0 Bft)
09/02/2022 05:00 6,6 C 73 % 1031,0 hPa 0,0 l/m 1,8 km/h (1 Bft) SO 0,00 h 0,025 mm 0 W/m 2,0 C 6,5 C 3,9 km/h (1 Bft)
09/02/2022 06:00 5,4 C 71 % 1031,1 hPa 0,0 l/m 1,0 km/h (0 Bft) SO 0,00 h 0,025 mm 0 W/m 0,6 C 5,4 C 2,7 km/h (1 Bft)
09/02/2022 07:00 5,3 C 70 % 1031,2 hPa 0,0 l/m 2,5 km/h (1 Bft) O-NO 0,18 h 0,025 mm 14 W/m 0,3 C 5,2 C 5,0 km/h (1 Bft)
09/02/2022 08:00 6,5 C 66 % 1031,5 hPa 0,0 l/m 0,2 km/h (0 Bft) O-NO 1,00 h 0,025 mm 101 W/m 0,7 C 6,5 C 1,3 km/h (1 Bft)
09/02/2022 09:00 9,6 C 57 % 1031,5 hPa 0,0 l/m 0,2 km/h (0 Bft) O-NO 1,00 h 0,051 mm 247 W/m 1,6 C 9,6 C 1,0 km/h (0 Bft)
09/02/2022 10:00 12,7 C 54 % 1031,5 hPa 0,0 l/m 0,2 km/h (0 Bft) E-SE 1,00 h 0,127 mm 375 W/m 3,6 C 12,7 C 0,7 km/h (0 Bft)
09/02/2022 11:00 14,9 C 49 % 1031,3 hPa 0,0 l/m 0,9 km/h (0 Bft) S 1,00 h 0,203 mm 462 W/m 4,4 C 14,9 C 2,5 km/h (1 Bft)
09/02/2022 12:00 16,3 C 51 % 1030,6 hPa 0,0 l/m 0,9 km/h (0 Bft) S 1,00 h 0,254 mm 495 W/m 6,0 C 16,3 C 3,0 km/h (1 Bft)
09/02/2022 13:00 17,8 C 50 % 1029,8 hPa 0,0 l/m 1,2 km/h (1 Bft) S-SO 1,00 h 0,279 mm 479 W/m 7,3 C 17,8 C 4,1 km/h (1 Bft)
09/02/2022 14:00 17,9 C 49 % 1029,0 hPa 0,0 l/m 4,9 km/h (1 Bft) S-SO 1,00 h 0,279 mm 415 W/m 7,0 C 17,9 C 10,5 km/h (2 Bft)
09/02/2022 15:00 18,2 C 45 % 1028,3 hPa 0,0 l/m 4,0 km/h (1 Bft) S-SO 1,00 h 0,254 mm 306 W/m 6,1 C 18,2 C 9,2 km/h (2 Bft)
09/02/2022 16:00 17,8 C 45 % 1028,2 hPa 0,0 l/m 2,5 km/h (1 Bft) SO 1,00 h 0,203 mm 170 W/m 5,6 C 17,8 C 7,2 km/h (2 Bft)
09/02/2022 17:00 15,6 C 58 % 1028,3 hPa 0,0 l/m 0,5 km/h (0 Bft) O-SO 0,10 h 0,127 mm 23 W/m 7,1 C 15,6 C 1,5 km/h (1 Bft)
09/02/2022 18:00 12,4 C 77 % 1028,7 hPa 0,0 l/m 0,0 km/h (0 Bft) N 0,00 h 0,025 mm 0 W/m 8,4 C 12,4 C 0,0 km/h (0 Bft)
09/02/2022 19:00 10,9 C 84 % 1029,0 hPa 0,0 l/m 0,1 km/h (0 Bft) O-SO 0,00 h 0,000 mm 0 W/m 8,3 C 10,9 C 0,4 km/h (0 Bft)
09/02/2022 20:00 10,2 C 80 % 1029,0 hPa 0,0 l/m 0,6 km/h (0 Bft) O-SO 0,00 h 0,000 mm 0 W/m 6,9 C 10,2 C 1,9 km/h (1 Bft)
09/02/2022 21:00 9,1 C 77 % 1028,9 hPa 0,0 l/m 1,4 km/h (1 Bft) O-SO 0,00 h 0,025 mm 0 W/m 5,2 C 9,1 C 3,4 km/h (1 Bft)
09/02/2022 22:00 8,3 C 75 % 1028,8 hPa 0,0 l/m 1,7 km/h (1 Bft) O-SO 0,00 h 0,025 mm 0 W/m 4,1 C 8,3 C 3,7 km/h (1 Bft)
09/02/2022 23:00 7,6 C 75 % 1028,3 hPa 0,0 l/m 0,9 km/h (0 Bft) O-SO 0,00 h 0,025 mm 0 W/m 3,4 C 7,6 C 2,3 km/h (1 Bft)
10/02/2022 00:00 7,1 C 74 % 1028,2 hPa 0,0 l/m 0,1 km/h (0 Bft) O-SO 0,00 h 0,025 mm 0 W/m 2,8 C 7,1 C 0,2 km/h (0 Bft)
10/02/2022 01:00 6,6 C 77 % 1027,8 hPa 0,0 l/m 0,2 km/h (0 Bft) O-SO 0,00 h 0,025 mm 0 W/m 2,8 C 6,6 C 0,8 km/h (0 Bft)
10/02/2022 02:00 6,0 C 77 % 1027,5 hPa 0,0 l/m 0,2 km/h (0 Bft) O-SO 0,00 h 0,025 mm 0 W/m 2,4 C 6,0 C 0,7 km/h (0 Bft)
10/02/2022 03:00 5,9 C 78 % 1026,8 hPa 0,0 l/m 0,0 km/h (0 Bft) O-SO 0,00 h 0,025 mm 0 W/m 2,3 C 5,9 C 0,1 km/h (0 Bft)
10/02/2022 04:00 5,4 C 79 % 1026,2 hPa 0,0 l/m 0,3 km/h (0 Bft) O-SO 0,00 h 0,025 mm 0 W/m 2,0 C 5,4 C 1,0 km/h (0 Bft)
10/02/2022 05:00 5,5 C 81 % 1026,3 hPa 0,0 l/m 0,4 km/h (0 Bft) O-SO 0,00 h 0,025 mm 0 W/m 2,5 C 5,5 C 1,7 km/h (1 Bft)
10/02/2022 06:00 5,3 C 82 % 1026,3 hPa 0,0 l/m 1,2 km/h (1 Bft) O-SO 0,00 h 0,000 mm 0 W/m 2,6 C 5,3 C 3,0 km/h (1 Bft)
10/02/2022 07:00 5,2 C 82 % 1026,3 hPa 0,0 l/m 0,4 km/h (0 Bft) O-SO 0,20 h 0,000 mm 14 W/m 2,4 C 5,2 C 1,1 km/h (1 Bft)
10/02/2022 08:00 6,0 C 79 % 1026,5 hPa 0,0 l/m 0,0 km/h (0 Bft) N 1,00 h 0,000 mm 103 W/m 2,6 C 6,0 C 0,1 km/h (0 Bft)
10/02/2022 09:00 10,0 C 71 % 1026,5 hPa 0,0 l/m 0,0 km/h (0 Bft) N 1,00 h 0,051 mm 249 W/m 4,9 C 10,0 C 0,0 km/h (0 Bft)
10/02/2022 10:00 12,5 C 64 % 1026,3 hPa 0,0 l/m 1,1 km/h (1 Bft) O-SO 1,00 h 0,127 mm 377 W/m 5,8 C 12,5 C 2,9 km/h (1 Bft)
10/02/2022 11:00 14,1 C 59 % 1026,1 hPa 0,0 l/m 1,5 km/h (1 Bft) SO 1,00 h 0,203 mm 463 W/m 6,3 C 14,1 C 4,7 km/h (1 Bft)
10/02/2022 12:00 16,1 C 58 % 1025,2 hPa 0,0 l/m 3,4 km/h (1 Bft) S 1,00 h 0,254 mm 497 W/m 7,7 C 16,1 C 7,9 km/h (2 Bft)
10/02/2022 13:00 17,7 C 51 % 1024,2 hPa 0,0 l/m 2,5 km/h (1 Bft) S 1,00 h 0,279 mm 482 W/m 7,4 C 17,7 C 6,2 km/h (2 Bft)
10/02/2022 14:00 18,3 C 47 % 1023,3 hPa 0,0 l/m 3,1 km/h (1 Bft) S 1,00 h 0,279 mm 415 W/m 6,9 C 18,3 C 6,7 km/h (2 Bft)
10/02/2022 15:00 19,5 C 48 % 1022,8 hPa 0,0 l/m 0,2 km/h (0 Bft) S-SO 1,00 h 0,254 mm 303 W/m 8,0 C 19,5 C 1,0 km/h (0 Bft)
10/02/2022 16:00 18,1 C 60 % 1022,8 hPa 0,0 l/m 0,0 km/h (0 Bft) S 1,00 h 0,178 mm 165 W/m 10,1 C 18,1 C 0,3 km/h (0 Bft)
10/02/2022 17:00 15,4 C 70 % 1022,9 hPa 0,0 l/m 0,0 km/h (0 Bft) N-NE 0,12 h 0,102 mm 25 W/m 9,8 C 15,4 C 1,0 km/h (0 Bft)
10/02/2022 18:00 11,8 C 83 % 1023,1 hPa 0,0 l/m 0,2 km/h (0 Bft) N 0,00 h 0,025 mm 0 W/m 9,0 C 11,8 C 1,7 km/h (1 Bft)
10/02/2022 19:00 10,5 C 88 % 1023,6 hPa 0,0 l/m 0,2 km/h (0 Bft) N 0,00 h 0,000 mm 0 W/m 8,6 C 10,5 C 1,6 km/h (1 Bft)
10/02/2022 20:00 9,5 C 89 % 1023,7 hPa 0,0 l/m 0,2 km/h (0 Bft) N 0,00 h 0,000 mm 0 W/m 7,9 C 9,5 C 1,1 km/h (1 Bft)
10/02/2022 21:00 9,0 C 90 % 1023,6 hPa 0,0 l/m 0,0 km/h (0 Bft) N 0,00 h 0,000 mm 0 W/m 7,4 C 9,0 C 0,1 km/h (0 Bft)
10/02/2022 22:00 8,6 C 87 % 1023,5 hPa 0,0 l/m 0,5 km/h (0 Bft) N 0,00 h 0,000 mm 0 W/m 6,6 C 8,6 C 1,5 km/h (1 Bft)
10/02/2022 23:00 8,7 C 81 % 1023,3 hPa 0,0 l/m 0,9 km/h (0 Bft) N 0,00 h 0,000 mm 0 W/m 5,7 C 8,7 C 2,7 km/h (1 Bft)
11/02/2022 00:00 8,8 C 86 % 1023,0 hPa 0,0 l/m 0,7 km/h (0 Bft) N 0,00 h 0,025 mm 0 W/m 6,7 C 8,8 C 2,6 km/h (1 Bft)
11/02/2022 01:00 8,9 C 89 % 1022,8 hPa 0,0 l/m 1,5 km/h (1 Bft) N 0,00 h 0,000 mm 0 W/m 7,1 C 8,9 C 3,6 km/h (1 Bft)
11/02/2022 02:00 8,3 C 84 % 1022,7 hPa 0,0 l/m 1,3 km/h (1 Bft) N 0,00 h 0,000 mm 0 W/m 5,8 C 8,3 C 3,4 km/h (1 Bft)
11/02/2022 03:00 8,2 C 85 % 1022,3 hPa 0,0 l/m 1,0 km/h (0 Bft) N 0,00 h 0,000 mm 0 W/m 5,8 C 8,2 C 2,9 km/h (1 Bft)
11/02/2022 04:00 8,4 C 85 % 1022,2 hPa 0,0 l/m 0,6 km/h (0 Bft) N 0,00 h 0,000 mm 0 W/m 6,1 C 8,4 C 1,9 km/h (1 Bft)
11/02/2022 05:00 9,0 C 86 % 1022,6 hPa 0,0 l/m 0,3 km/h (0 Bft) N 0,00 h 0,000 mm 0 W/m 6,8 C 9,0 C 1,4 km/h (1 Bft)
11/02/2022 06:00 9,0 C 85 % 1022,3 hPa 0,0 l/m 0,2 km/h (0 Bft) N 0,00 h 0,000 mm 0 W/m 6,5 C 9,0 C 0,6 km/h (0 Bft)
11/02/2022 07:00 8,3 C 83 % 1022,6 hPa 0,0 l/m 1,2 km/h (1 Bft) N 0,05 h 0,000 mm 13 W/m 5,5 C 8,3 C 3,1 km/h (1 Bft)
11/02/2022 08:00 8,6 C 83 % 1022,7 hPa 0,0 l/m 0,1 km/h (0 Bft) N 0,20 h 0,000 mm 74 W/m 6,0 C 8,6 C 1,1 km/h (1 Bft)
11/02/2022 09:00 11,0 C 80 % 1022,5 hPa 0,0 l/m 0,0 km/h (0 Bft) N 1,00 h 0,025 mm 223 W/m 7,7 C 11,0 C 0,0 km/h (0 Bft)
11/02/2022 10:00 13,9 C 75 % 1022,1 hPa 0,0 l/m 0,1 km/h (0 Bft) O-SO 0,70 h 0,102 mm 348 W/m 9,6 C 13,9 C 0,6 km/h (0 Bft)
11/02/2022 11:00 15,0 C 71 % 1021,8 hPa 0,0 l/m 1,0 km/h (0 Bft) S 0,68 h 0,178 mm 367 W/m 9,8 C 15,0 C 3,0 km/h (1 Bft)
11/02/2022 12:00 15,5 C 70 % 1021,3 hPa 0,0 l/m 1,6 km/h (1 Bft) E 0,98 h 0,203 mm 460 W/m 10,0 C 15,5 C 5,0 km/h (1 Bft)
11/02/2022 13:00 15,5 C 70 % 1020,8 hPa 0,0 l/m 1,8 km/h (1 Bft) E 0,98 h 0,254 mm 460 W/m 10,0 C 15,5 C 5,9 km/h (2 Bft)
11/02/2022 14:00 15,8 C 71 % 1020,7 hPa 0,0 l/m 0,3 km/h (0 Bft) E 0,87 h 0,254 mm 387 W/m 10,4 C 15,8 C 2,0 km/h (1 Bft)
11/02/2022 15:00 16,0 C 69 % 1020,7 hPa 0,0 l/m 0,9 km/h (0 Bft) E 0,72 h 0,203 mm 284 W/m 10,4 C 16,0 C 3,4 km/h (1 Bft)
11/02/2022 16:00 13,4 C 78 % 1021,1 hPa 0,0 l/m 0,6 km/h (0 Bft) E 0,00 h 0,152 mm 80 W/m 9,6 C 13,4 C 2,7 km/h (1 Bft)
11/02/2022 17:00 12,2 C 83 % 1021,5 hPa 0,0 l/m 0,8 km/h (0 Bft) E 0,02 h 0,051 mm 27 W/m 9,4 C 12,2 C 3,2 km/h (1 Bft)
11/02/2022 18:00 11,5 C 86 % 1022,1 hPa 0,0 l/m 0,9 km/h (0 Bft) E 0,00 h 0,025 mm 0 W/m 9,2 C 11,5 C 3,9 km/h (1 Bft)
11/02/2022 19:00 11,3 C 87 % 1022,8 hPa 0,0 l/m 0,7 km/h (0 Bft) E 0,00 h 0,000 mm 0 W/m 9,2 C 11,3 C 3,4 km/h (1 Bft)
11/02/2022 20:00 11,1 C 87 % 1023,3 hPa 0,0 l/m 0,4 km/h (0 Bft) E 0,00 h 0,000 mm 0 W/m 9,1 C 11,1 C 1,7 km/h (1 Bft)
11/02/2022 21:00 10,5 C 87 % 1023,6 hPa 0,0 l/m 0,0 km/h (0 Bft) N 0,00 h 0,000 mm 0 W/m 8,5 C 10,5 C 0,1 km/h (0 Bft)
11/02/2022 22:00 9,6 C 90 % 1023,9 hPa 0,0 l/m 0,2 km/h (0 Bft) E 0,00 h 0,000 mm 0 W/m 8,0 C 9,6 C 1,0 km/h (0 Bft)
11/02/2022 23:00 8,9 C 91 % 1024,2 hPa 0,0 l/m 0,3 km/h (0 Bft) E 0,00 h 0,000 mm 0 W/m 7,5 C 8,9 C 1,3 km/h (1 Bft)
12/02/2022 00:00 8,5 C 91 % 1024,5 hPa 0,0 l/m 0,1 km/h (0 Bft) E 0,00 h 0,000 mm 0 W/m 7,0 C 8,5 C 0,2 km/h (0 Bft)
12/02/2022 01:00 8,6 C 93 % 1024,5 hPa 0,0 l/m 0,2 km/h (0 Bft) E 0,00 h 0,000 mm 0 W/m 7,5 C 8,6 C 0,8 km/h (0 Bft)
12/02/2022 02:00 8,3 C 92 % 1024,4 hPa 0,0 l/m 0,4 km/h (0 Bft) E 0,00 h 0,000 mm 0 W/m 7,1 C 8,3 C 1,3 km/h (1 Bft)
12/02/2022 03:00 7,6 C 90 % 1024,0 hPa 0,0 l/m 1,9 km/h (1 Bft) E 0,00 h 0,000 mm 0 W/m 6,0 C 7,6 C 4,6 km/h (1 Bft)
12/02/2022 04:00 7,7 C 87 % 1023,8 hPa 0,0 l/m 2,1 km/h (1 Bft) O-NO 0,00 h 0,000 mm 0 W/m 5,6 C 7,7 C 5,0 km/h (1 Bft)
12/02/2022 05:00 7,3 C 85 % 1024,1 hPa 0,0 l/m 1,8 km/h (1 Bft) NO 0,00 h 0,000 mm 0 W/m 5,0 C 7,3 C 4,2 km/h (1 Bft)
12/02/2022 06:00 6,8 C 84 % 1024,5 hPa 0,0 l/m 0,3 km/h (0 Bft) NO 0,00 h 0,000 mm 0 W/m 4,3 C 6,8 C 1,1 km/h (1 Bft)
12/02/2022 07:00 6,4 C 83 % 1025,0 hPa 0,0 l/m 0,1 km/h (0 Bft) NO 0,25 h 0,000 mm 18 W/m 3,7 C 6,4 C 0,5 km/h (0 Bft)
12/02/2022 08:00 7,4 C 79 % 1025,7 hPa 0,0 l/m 0,0 km/h (0 Bft) N 1,00 h 0,000 mm 106 W/m 4,0 C 7,4 C 0,0 km/h (0 Bft)
12/02/2022 09:00 10,9 C 69 % 1026,4 hPa 0,0 l/m 0,0 km/h (0 Bft) N 1,00 h 0,051 mm 250 W/m 5,4 C 10,9 C 0,0 km/h (0 Bft)
12/02/2022 10:00 14,1 C 58 % 1026,8 hPa 0,0 l/m 0,3 km/h (0 Bft) E 1,00 h 0,127 mm 379 W/m 5,8 C 14,1 C 1,3 km/h (1 Bft)
12/02/2022 11:00 16,1 C 50 % 1027,1 hPa 0,0 l/m 0,5 km/h (0 Bft) E 1,00 h 0,203 mm 461 W/m 5,7 C 16,1 C 2,4 km/h (1 Bft)
12/02/2022 12:00 16,3 C 50 % 1026,8 hPa 0,0 l/m 1,8 km/h (1 Bft) E-SE 1,00 h 0,254 mm 493 W/m 5,8 C 16,3 C 5,6 km/h (1 Bft)
12/02/2022 13:00 16,5 C 50 % 1026,1 hPa 0,0 l/m 1,8 km/h (1 Bft) E 1,00 h 0,279 mm 478 W/m 6,0 C 16,5 C 5,6 km/h (1 Bft)
12/02/2022 14:00 15,9 C 50 % 1025,7 hPa 0,0 l/m 1,3 km/h (1 Bft) E 1,00 h 0,279 mm 406 W/m 5,4 C 15,9 C 5,3 km/h (1 Bft)
12/02/2022 15:00 15,4 C 52 % 1025,5 hPa 0,0 l/m 0,8 km/h (0 Bft) E 1,00 h 0,229 mm 295 W/m 5,6 C 15,4 C 3,4 km/h (1 Bft)
12/02/2022 16:00 14,2 C 56 % 1025,4 hPa 0,0 l/m 0,3 km/h (0 Bft) S-SO 0,65 h 0,152 mm 146 W/m 5,5 C 14,2 C 1,9 km/h (1 Bft)
12/02/2022 17:00 11,9 C 60 % 1025,5 hPa 0,0 l/m 1,3 km/h (1 Bft) SE 0,00 h 0,076 mm 30 W/m 4,3 C 11,9 C 3,4 km/h (1 Bft)
12/02/2022 18:00 10,3 C 63 % 1025,8 hPa 0,0 l/m 0,4 km/h (0 Bft) SE 0,00 h 0,025 mm 0 W/m 3,6 C 10,3 C 0,9 km/h (0 Bft)
12/02/2022 19:00 9,4 C 68 % 1026,1 hPa 0,0 l/m 0,7 km/h (0 Bft) SE 0,00 h 0,000 mm 0 W/m 3,8 C 9,4 C 2,3 km/h (1 Bft)
12/02/2022 20:00 8,7 C 70 % 1026,3 hPa 0,0 l/m 1,1 km/h (0 Bft) SO 0,00 h 0,025 mm 0 W/m 3,5 C 8,7 C 3,0 km/h (1 Bft)
12/02/2022 21:00 8,9 C 69 % 1026,3 hPa 0,0 l/m 1,3 km/h (1 Bft) O-SO 0,00 h 0,025 mm 0 W/m 3,5 C 8,9 C 3,2 km/h (1 Bft)
12/02/2022 22:00 8,4 C 68 % 1026,5 hPa 0,0 l/m 0,0 km/h (0 Bft) N 0,00 h 0,025 mm 0 W/m 2,9 C 8,4 C 0,2 km/h (0 Bft)
12/02/2022 23:00 7,7 C 72 % 1026,5 hPa 0,0 l/m 0,9 km/h (0 Bft) O-SO 0,00 h 0,025 mm 0 W/m 2,9 C 7,7 C 1,8 km/h (1 Bft)
13/02/2022 00:00 7,7 C 71 % 1026,5 hPa 0,0 l/m 0,6 km/h (0 Bft) O-SO 0,00 h 0,025 mm 0 W/m 2,7 C 7,7 C 1,9 km/h (1 Bft)
13/02/2022 01:00 7,1 C 65 % 1026,2 hPa 0,0 l/m 2,2 km/h (1 Bft) O-SO 0,00 h 0,025 mm 0 W/m 0,9 C 7,1 C 4,1 km/h (1 Bft)
13/02/2022 02:00 6,4 C 64 % 1026,0 hPa 0,0 l/m 2,0 km/h (1 Bft) O-SO 0,00 h 0,025 mm 0 W/m 0,1 C 6,4 C 4,1 km/h (1 Bft)
13/02/2022 03:00 6,1 C 64 % 1025,6 hPa 0,0 l/m 1,7 km/h (1 Bft) O-SO 0,00 h 0,025 mm 0 W/m -0,2 C 6,1 C 3,7 km/h (1 Bft)
13/02/2022 04:00 5,9 C 63 % 1025,2 hPa 0,0 l/m 2,4 km/h (1 Bft) O-SO 0,00 h 0,025 mm 0 W/m -0,7 C 5,9 C 4,7 km/h (1 Bft)
13/02/2022 05:00 5,6 C 62 % 1025,3 hPa 0,0 l/m 2,1 km/h (1 Bft) O-SO 0,00 h 0,025 mm 0 W/m -1,1 C 5,6 C 4,5 km/h (1 Bft)
13/02/2022 06:00 5,3 C 61 % 1025,1 hPa 0,0 l/m 2,8 km/h (1 Bft) O-SO 0,00 h 0,025 mm 0 W/m -1,5 C 5,3 C 4,6 km/h (1 Bft)
13/02/2022 07:00 5,4 C 63 % 1025,4 hPa 0,0 l/m 2,5 km/h (1 Bft) O-SO 0,00 h 0,025 mm 12 W/m -1,2 C 5,4 C 4,6 km/h (1 Bft)
13/02/2022 08:00 5,9 C 64 % 1025,6 hPa 0,0 l/m 1,2 km/h (1 Bft) O-SO 0,30 h 0,025 mm 78 W/m -0,3 C 5,9 C 3,1 km/h (1 Bft)
13/02/2022 09:00 8,8 C 63 % 1025,7 hPa 0,0 l/m 0,0 km/h (0 Bft) O-SO 0,98 h 0,051 mm 244 W/m 2,0 C 8,8 C 0,3 km/h (0 Bft)
13/02/2022 10:00 12,4 C 54 % 1025,5 hPa 0,0 l/m 0,7 km/h (0 Bft) E 1,00 h 0,102 mm 374 W/m 3,4 C 12,4 C 2,4 km/h (1 Bft)
13/02/2022 11:00 13,8 C 49 % 1025,3 hPa 0,0 l/m 1,7 km/h (1 Bft) E 1,00 h 0,203 mm 464 W/m 3,3 C 13,8 C 4,4 km/h (1 Bft)
13/02/2022 12:00 13,9 C 47 % 1024,8 hPa 0,0 l/m 2,8 km/h (1 Bft) S-SE 1,00 h 0,254 mm 504 W/m 2,9 C 13,9 C 6,0 km/h (2 Bft)
13/02/2022 13:00 14,1 C 47 % 1024,0 hPa 0,0 l/m 2,7 km/h (1 Bft) SE 1,00 h 0,279 mm 487 W/m 3,1 C 14,1 C 6,1 km/h (2 Bft)
13/02/2022 14:00 13,4 C 49 % 1023,1 hPa 0,0 l/m 1,4 km/h (1 Bft) E 0,57 h 0,279 mm 333 W/m 3,0 C 13,4 C 4,9 km/h (1 Bft)
13/02/2022 15:00 12,4 C 49 % 1022,6 hPa 0,0 l/m 1,3 km/h (1 Bft) E-SE 0,23 h 0,178 mm 187 W/m 1,9 C 12,4 C 4,4 km/h (1 Bft)
13/02/2022 16:00 11,2 C 50 % 1022,4 hPa 0,0 l/m 1,2 km/h (1 Bft) E-SE 0,17 h 0,102 mm 108 W/m 1,0 C 11,2 C 3,5 km/h (1 Bft)
13/02/2022 17:00 10,2 C 53 % 1022,0 hPa 0,0 l/m 0,1 km/h (0 Bft) E-SE 0,00 h 0,076 mm 21 W/m 0,9 C 10,2 C 0,9 km/h (0 Bft)
13/02/2022 18:00 8,9 C 59 % 1022,2 hPa 0,0 l/m 0,0 km/h (0 Bft) N 0,00 h 0,025 mm 0 W/m 1,3 C 8,9 C 0,1 km/h (0 Bft)
13/02/2022 19:00 8,3 C 61 % 1022,1 hPa 0,0 l/m 0,0 km/h (0 Bft) N 0,00 h 0,000 mm 0 W/m 1,1 C 8,3 C 0,0 km/h (0 Bft)
13/02/2022 20:00 7,9 C 65 % 1021,8 hPa 0,0 l/m 0,0 km/h (0 Bft) N 0,00 h 0,025 mm 0 W/m 1,8 C 7,9 C 0,0 km/h (0 Bft)
13/02/2022 21:00 7,8 C 72 % 1021,6 hPa 0,2 l/m 0,2 km/h (0 Bft) NO 0,00 h 0,025 mm 0 W/m 3,1 C 7,8 C 1,0 km/h (0 Bft)
13/02/2022 22:00 7,0 C 83 % 1021,5 hPa 0,2 l/m 0,4 km/h (0 Bft) NO 0,00 h 0,025 mm 0 W/m 4,3 C 7,0 C 1,1 km/h (1 Bft)
13/02/2022 23:00 6,4 C 87 % 1021,0 hPa 0,0 l/m 0,0 km/h (0 Bft) N 0,00 h 0,000 mm 0 W/m 4,4 C 6,4 C 0,1 km/h (0 Bft)
Min-Date _ 09/02/22 08/02/22 07/02/22 - 07/02/22 - - - - 08/02/22 09/02/22 07/02/22
_ Min-Heure 06:39 13:20 07:00 - 00:00 - - - - 06:10 07:56 00:00
Minimum _ 5,0 C 32 % 1008,2 hPa - 0,0 km/h (0 Bft) - - - - -2,3 C 4,1 C 0,0 km/h (0 Bft)
Max-Date _ 10/02/22 12/02/22 09/02/22 13/02/22 09/02/22 - 07/02/22 08/02/22 11/02/22 11/02/22 10/02/22 09/02/22
_ Max-Heure 15:34 01:16 02:30 21:56 14:55 - 07:52 14:00 13:40 15:06 15:34 14:35
Maximum _ 19,8 C 93 % 1031,7 hPa 0,2 l/m 11,3 km/h
S-SO (2 Bft)
- 0,02 h 0,305 mm 636 W/m 11,0 C 19,8 C 20,9 km/h
S-SO (4 Bft)
Moyenne _ 10,5 C 68 % 1024,5 hPa #0,4 l/m 0,9 km/h (0 Bft) O-SO #58:31 h #13,006 mm 269 W/m 4,4 C 10,5 C 2,4 km/h (1 Bft)
Roquefort les pins